Time;durP1;ratioP1;P1;durP2;ratioP2;P2;SDS_P1;SDS_P2;PMS_P1;PMS_P2;Temp;Humidity;BMP_temperature;BMP_pressure;BME280_temperature;BME280_humidity;BME280_pressure;Samples;Min_cycle;Max_cycle;Signal;HPM_P1;HPM_P2
2021/12/01 00:00:05;;;;;;;3.33;1.70;;;;;;;;;;5060937;28;20504;-89
2021/12/01 00:02:30;;;;;;;2.92;1.83;;;;;;;;;;5075381;28;20391;-89
2021/12/01 00:04:55;;;;;;;3.92;2.35;;;;;;;;;;5071489;28;20036;-90
2021/12/01 00:07:21;;;;;;;2.63;2.17;;;;;;;;;;5065067;28;20039;-89
2021/12/01 00:09:46;;;;;;;2.93;2.30;;;;;;;;;;5073571;28;20039;-89
2021/12/01 00:12:11;;;;;;;3.47;2.55;;;;;;;;;;5062502;28;20015;-89
2021/12/01 00:14:36;;;;;;;6.15;3.10;;;;;;;;;;5074854;28;20460;-90
2021/12/01 00:17:02;;;;;;;4.25;3.17;;;;;;;;;;5060860;28;20008;-89
2021/12/01 00:19:29;;;;;;;6.78;4.10;;;;;;;;;;5063777;28;20017;-89
2021/12/01 00:21:54;;;;;;;6.45;3.25;;;;;;;;;;5086459;28;20039;-89
2021/12/01 00:24:20;;;;;;;7.00;3.95;;;;;;;;;;5076735;28;20425;-89
2021/12/01 00:26:45;;;;;;;7.93;4.13;;;;;;;;;;5066694;28;20111;-89
2021/12/01 00:29:10;;;;;;;5.57;3.90;;;;;;;;;;5074648;28;20473;-89
2021/12/01 00:31:35;;;;;;;7.80;3.85;;;;;;;;;;5078640;28;20024;-89
2021/12/01 00:34:01;;;;;;;6.05;4.43;;;;;;;;;;5078398;28;20047;-89
2021/12/01 00:36:29;;;;;;;6.50;4.80;;;;;;;;;;5096716;28;20078;-89
2021/12/01 00:38:54;;;;;;;6.65;4.35;;;;;;;;;;5065078;28;20480;-89
2021/12/01 00:41:22;;;;;;;7.40;4.85;;;;;;;;;;5058557;28;20024;-89
2021/12/01 00:43:47;;;;;;;8.93;5.17;;;;;;;;;;5103710;28;20020;-89
2021/12/01 00:46:36;;;;;;;8.07;5.22;;;;;;;;;;5073666;28;20027;-89
2021/12/01 00:49:02;;;;;;;7.50;4.72;;;;;;;;;;5071133;28;20515;-89
2021/12/01 00:51:27;;;;;;;6.87;5.07;;;;;;;;;;5063894;28;20030;-89
2021/12/01 00:53:52;;;;;;;6.90;4.87;;;;;;;;;;5078026;28;20074;-89
2021/12/01 00:56:17;;;;;;;7.10;4.83;;;;;;;;;;5078328;28;20044;-89
2021/12/01 00:58:43;;;;;;;6.10;4.07;;;;;;;;;;5069930;28;20021;-89
2021/12/01 01:01:08;;;;;;;8.67;5.13;;;;;;;;;;5071520;28;20016;-89
2021/12/01 01:03:33;;;;;;;5.77;4.57;;;;;;;;;;5077984;28;20020;-89
2021/12/01 01:05:58;;;;;;;5.57;4.00;;;;;;;;;;5077969;28;20062;-89
2021/12/01 01:08:23;;;;;;;3.03;2.13;;;;;;;;;;5070200;28;20361;-89
2021/12/01 01:16:25;;;;;;;6.90;4.47;;;;;;;;;;5081444;28;20011;-89
2021/12/01 01:18:50;;;;;;;6.20;4.57;;;;;;;;;;5073049;28;20066;-89
2021/12/01 01:21:16;;;;;;;5.28;2.95;;;;;;;;;;5065426;28;20463;-89
2021/12/01 01:23:42;;;;;;;5.65;4.20;;;;;;;;;;5092081;28;20039;-89
2021/12/01 01:26:09;;;;;;;5.03;3.90;;;;;;;;;;5077268;28;20637;-89
2021/12/01 01:28:34;;;;;;;4.13;3.25;;;;;;;;;;5095439;28;20036;-90
2021/12/01 01:31:00;;;;;;;5.30;3.40;;;;;;;;;;5077507;28;20085;-89
2021/12/01 01:33:25;;;;;;;7.63;3.30;;;;;;;;;;5065382;28;20016;-89
2021/12/01 01:35:52;;;;;;;4.60;3.20;;;;;;;;;;5093151;28;20383;-89
2021/12/01 01:38:17;;;;;;;4.27;2.40;;;;;;;;;;5077532;28;20391;-89
2021/12/01 01:40:42;;;;;;;3.50;2.43;;;;;;;;;;5073277;28;20111;-89
2021/12/01 01:43:08;;;;;;;3.10;1.80;;;;;;;;;;5077326;28;20016;-89
2021/12/01 01:45:34;;;;;;;2.57;1.50;;;;;;;;;;5077317;28;20028;-89
2021/12/01 01:48:01;;;;;;;2.53;2.03;;;;;;;;;;5071703;28;20027;-89
2021/12/01 01:50:36;;;;;;;2.90;1.37;;;;;;;;;;5068938;28;20521;-89
2021/12/01 01:53:06;;;;;;;2.37;1.70;;;;;;;;;;5071633;28;20019;-89
2021/12/01 01:55:32;;;;;;;2.60;1.90;;;;;;;;;;5059483;28;20457;-89
2021/12/01 01:57:57;;;;;;;3.50;1.80;;;;;;;;;;5072136;28;20027;-88
2021/12/01 02:00:22;;;;;;;2.75;1.90;;;;;;;;;;5076906;28;20048;-88
2021/12/01 02:02:48;;;;;;;5.47;1.95;;;;;;;;;;5075250;28;20024;-89
2021/12/01 02:05:13;;;;;;;3.50;1.97;;;;;;;;;;5064523;28;20016;-89
2021/12/01 02:07:38;;;;;;;2.77;1.73;;;;;;;;;;5076547;28;20109;-89
2021/12/01 02:10:04;;;;;;;3.57;2.00;;;;;;;;;;5062117;28;20023;-88
2021/12/01 02:12:29;;;;;;;3.88;1.90;;;;;;;;;;5065393;28;20024;-88
2021/12/01 02:14:55;;;;;;;4.30;2.17;;;;;;;;;;5093578;28;20045;-89
2021/12/01 02:17:20;;;;;;;3.43;1.87;;;;;;;;;;5066000;28;20483;-89
2021/12/01 02:19:46;;;;;;;4.63;2.43;;;;;;;;;;5061958;28;20357;-88
2021/12/01 02:22:11;;;;;;;2.57;2.10;;;;;;;;;;5076276;28;20527;-89
2021/12/01 02:24:36;;;;;;;3.33;1.97;;;;;;;;;;5076268;28;20835;-89
2021/12/01 02:27:01;;;;;;;5.07;2.40;;;;;;;;;;5058291;28;20048;-89
2021/12/01 02:29:27;;;;;;;3.70;2.40;;;;;;;;;;5066379;28;20529;-89
2021/12/01 02:31:53;;;;;;;3.20;2.27;;;;;;;;;;5066905;28;20063;-89
2021/12/01 02:34:23;;;;;;;4.20;2.40;;;;;;;;;;5074185;28;20029;-89
2021/12/01 02:36:53;;;;;;;4.37;2.60;;;;;;;;;;5070703;28;20046;-89
2021/12/01 02:39:19;;;;;;;3.17;2.40;;;;;;;;;;5076186;28;20502;-89
2021/12/01 02:41:45;;;;;;;5.93;3.00;;;;;;;;;;5063036;28;20029;-89
2021/12/01 02:44:16;;;;;;;6.50;3.00;;;;;;;;;;5070075;28;20108;-89
2021/12/01 02:46:43;;;;;;;4.65;2.80;;;;;;;;;;5063236;28;20055;-89
2021/12/01 02:49:08;;;;;;;6.20;3.37;;;;;;;;;;5075390;28;20032;-89
2021/12/01 02:51:36;;;;;;;5.00;3.40;;;;;;;;;;5076204;28;20428;-89
2021/12/01 02:54:01;;;;;;;6.13;3.17;;;;;;;;;;5075799;28;20016;-89
2021/12/01 02:56:27;;;;;;;5.60;3.40;;;;;;;;;;5075912;28;20352;-89
2021/12/01 02:58:53;;;;;;;5.77;3.17;;;;;;;;;;5093868;28;20038;-89
2021/12/01 03:01:19;;;;;;;5.77;2.70;;;;;;;;;;5075977;28;20089;-89
2021/12/01 03:03:45;;;;;;;4.17;2.90;;;;;;;;;;5075750;28;20031;-89
2021/12/01 03:06:11;;;;;;;6.57;3.20;;;;;;;;;;5079207;28;20367;-89
2021/12/01 03:08:37;;;;;;;6.97;3.27;;;;;;;;;;5065147;28;20111;-89
2021/12/01 03:11:02;;;;;;;5.03;3.10;;;;;;;;;;5057567;28;20107;-89
2021/12/01 03:13:28;;;;;;;3.43;2.90;;;;;;;;;;5075759;28;20020;-89
2021/12/01 03:15:54;;;;;;;4.23;2.70;;;;;;;;;;5093240;28;20016;-89
2021/12/01 03:18:20;;;;;;;5.63;2.70;;;;;;;;;;5071934;28;20027;-89
2021/12/01 03:20:46;;;;;;;3.93;2.77;;;;;;;;;;5085470;28;20104;-89
2021/12/01 03:23:11;;;;;;;4.60;2.60;;;;;;;;;;5069980;28;20070;-89
2021/12/01 03:25:36;;;;;;;4.67;2.50;;;;;;;;;;5075682;28;20048;-89
2021/12/01 03:28:02;;;;;;;3.20;2.17;;;;;;;;;;5075397;28;20110;-90
2021/12/01 03:30:33;;;;;;;3.30;2.73;;;;;;;;;;5075177;28;20034;-89
2021/12/01 03:32:58;;;;;;;5.17;2.50;;;;;;;;;;5075644;28;20020;-89
2021/12/01 03:35:23;;;;;;;2.80;2.00;;;;;;;;;;5061288;28;20016;-89
2021/12/01 03:37:49;;;;;;;7.07;2.20;;;;;;;;;;5074679;28;20110;-89
2021/12/01 03:40:15;;;;;;;2.63;2.00;;;;;;;;;;5075358;28;20028;-89
2021/12/01 03:42:40;;;;;;;4.93;2.30;;;;;;;;;;5075361;28;20026;-89
2021/12/01 03:45:06;;;;;;;3.20;2.17;;;;;;;;;;5093595;28;20023;-89
2021/12/01 03:47:32;;;;;;;6.57;2.60;;;;;;;;;;5060953;28;20059;-89
2021/12/01 03:49:57;;;;;;;2.77;1.53;;;;;;;;;;5075074;28;20472;-89
2021/12/01 03:52:24;;;;;;;5.97;1.60;;;;;;;;;;5075165;28;20111;-89
2021/12/01 03:54:50;;;;;;;3.90;2.30;;;;;;;;;;5093442;28;20099;-88
2021/12/01 03:57:15;;;;;;;7.53;2.30;;;;;;;;;;5066080;28;20044;-89
2021/12/01 03:59:41;;;;;;;6.20;2.43;;;;;;;;;;5064739;28;20070;-89
2021/12/01 04:02:07;;;;;;;4.53;2.07;;;;;;;;;;5078991;28;20027;-88
2021/12/01 04:04:32;;;;;;;4.77;2.37;;;;;;;;;;5079285;28;20020;-88
2021/12/01 04:06:57;;;;;;;3.43;1.73;;;;;;;;;;5097072;28;20024;-89
2021/12/01 04:09:22;;;;;;;4.10;1.80;;;;;;;;;;5096831;28;20027;-89
2021/12/01 04:11:48;;;;;;;2.50;1.43;;;;;;;;;;5078989;28;20039;-89
2021/12/01 04:14:13;;;;;;;6.60;2.27;;;;;;;;;;5064881;28;20024;-89
2021/12/01 04:16:38;;;;;;;4.97;2.13;;;;;;;;;;5075469;28;20027;-89
2021/12/01 04:19:04;;;;;;;3.93;2.00;;;;;;;;;;5079131;28;20016;-89
2021/12/01 04:21:29;;;;;;;2.90;1.80;;;;;;;;;;5078135;28;20034;-89
2021/12/01 04:23:55;;;;;;;3.57;1.77;;;;;;;;;;5064913;28;20030;-89
2021/12/01 04:26:24;;;;;;;3.07;1.70;;;;;;;;;;5078901;28;20489;-89
2021/12/01 04:28:49;;;;;;;3.50;2.00;;;;;;;;;;5064506;28;20028;-89
2021/12/01 04:31:14;;;;;;;3.40;1.77;;;;;;;;;;5077890;28;20080;-88
2021/12/01 04:33:40;;;;;;;2.70;1.70;;;;;;;;;;5062102;28;20016;-89
2021/12/01 04:36:05;;;;;;;2.43;1.43;;;;;;;;;;5078702;28;20049;-89
2021/12/01 04:38:30;;;;;;;2.10;1.50;;;;;;;;;;5082294;28;20017;-89
2021/12/01 04:40:55;;;;;;;1.70;1.30;;;;;;;;;;5072023;28;20371;-89
2021/12/01 04:43:21;;;;;;;2.43;1.60;;;;;;;;;;5058484;28;20032;-89
2021/12/01 04:45:52;;;;;;;4.73;1.63;;;;;;;;;;5062936;28;20050;-89
2021/12/01 04:48:17;;;;;;;3.20;1.23;;;;;;;;;;5066954;28;20020;-89
2021/12/01 04:50:42;;;;;;;2.53;1.13;;;;;;;;;;5072123;28;20375;-89
2021/12/01 04:53:07;;;;;;;2.37;1.20;;;;;;;;;;5067104;28;20016;-89
2021/12/01 04:55:34;;;;;;;2.67;1.30;;;;;;;;;;5078353;28;20023;-89
2021/12/01 04:57:59;;;;;;;3.00;1.30;;;;;;;;;;5077957;28;20016;-89
2021/12/01 05:00:28;;;;;;;1.77;1.10;;;;;;;;;;5077894;28;20031;-89
2021/12/01 05:02:53;;;;;;;1.10;0.90;;;;;;;;;;5078075;28;20047;-88
2021/12/01 05:05:19;;;;;;;2.53;1.23;;;;;;;;;;5078006;28;20467;-89
2021/12/01 05:07:44;;;;;;;1.83;1.20;;;;;;;;;;5077768;28;20028;-89
2021/12/01 05:10:10;;;;;;;2.07;1.30;;;;;;;;;;5094974;28;20488;-88
2021/12/01 05:12:35;;;;;;;2.40;1.20;;;;;;;;;;5072779;28;20028;-89
2021/12/01 05:15:01;;;;;;;1.53;0.97;;;;;;;;;;5064558;28;20012;-89
2021/12/01 05:17:26;;;;;;;3.03;1.00;;;;;;;;;;5077709;28;20472;-88
2021/12/01 05:19:51;;;;;;;2.57;1.20;;;;;;;;;;5076465;28;20118;-88
2021/12/01 05:22:16;;;;;;;2.60;1.03;;;;;;;;;;5057745;28;20020;-89
2021/12/01 05:24:42;;;;;;;1.10;1.00;;;;;;;;;;5070369;28;20020;-89
2021/12/01 05:27:07;;;;;;;1.20;1.00;;;;;;;;;;5068825;28;20074;-89
2021/12/01 05:29:32;;;;;;;2.53;1.10;;;;;;;;;;5068251;28;20024;-89
2021/12/01 05:31:57;;;;;;;2.50;1.30;;;;;;;;;;5077427;28;20016;-89
2021/12/01 05:34:23;;;;;;;1.93;1.20;;;;;;;;;;5077055;28;20024;-88
2021/12/01 05:36:49;;;;;;;3.27;1.30;;;;;;;;;;5062679;28;20025;-89
2021/12/01 05:39:15;;;;;;;1.80;1.10;;;;;;;;;;5057234;28;20032;-88
2021/12/01 05:41:40;;;;;;;7.83;3.00;;;;;;;;;;5070155;28;20508;-89
2021/12/01 05:44:05;;;;;;;3.17;1.20;;;;;;;;;;5063285;28;20162;-89
2021/12/01 05:46:30;;;;;;;2.40;1.40;;;;;;;;;;5073033;28;20027;-89
2021/12/01 05:48:56;;;;;;;1.93;1.10;;;;;;;;;;5077134;28;20107;-89
2021/12/01 05:51:21;;;;;;;2.57;1.40;;;;;;;;;;5077203;28;20099;-89
2021/12/01 05:53:48;;;;;;;2.10;1.07;;;;;;;;;;5094771;28;20016;-89
2021/12/01 05:56:13;;;;;;;4.03;1.00;;;;;;;;;;5056723;28;20013;-89
2021/12/01 05:58:38;;;;;;;1.50;1.00;;;;;;;;;;5057130;28;20116;-89
2021/12/01 06:01:03;;;;;;;1.40;0.90;;;;;;;;;;5070037;28;20035;-89
2021/12/01 06:03:29;;;;;;;1.27;0.90;;;;;;;;;;5067120;28;20480;-89
2021/12/01 06:05:55;;;;;;;1.80;1.00;;;;;;;;;;5074614;28;20020;-89
2021/12/01 06:08:20;;;;;;;1.63;1.00;;;;;;;;;;5056778;28;20033;-89
2021/12/01 06:10:45;;;;;;;1.97;1.10;;;;;;;;;;5070831;28;20020;-89
2021/12/01 06:13:13;;;;;;;1.03;0.80;;;;;;;;;;5076718;28;20375;-89
2021/12/01 06:15:38;;;;;;;2.67;1.00;;;;;;;;;;5076628;28;20084;-89
2021/12/01 06:18:04;;;;;;;1.37;0.90;;;;;;;;;;5062318;28;20119;-88
2021/12/01 06:20:29;;;;;;;1.37;0.80;;;;;;;;;;5070443;28;20565;-89
2021/12/01 06:22:54;;;;;;;1.10;0.80;;;;;;;;;;5060244;28;20024;-89
2021/12/01 06:25:19;;;;;;;1.23;0.90;;;;;;;;;;5058472;28;20028;-89
2021/12/01 06:27:45;;;;;;;1.47;0.87;;;;;;;;;;5066528;28;20024;-89
2021/12/01 06:30:10;;;;;;;0.70;0.70;;;;;;;;;;5076120;28;20094;-89
2021/12/01 06:32:35;;;;;;;2.33;0.87;;;;;;;;;;5094264;28;20525;-89
2021/12/01 06:35:01;;;;;;;1.30;0.80;;;;;;;;;;5080364;28;20486;-89
2021/12/01 06:37:26;;;;;;;3.20;1.00;;;;;;;;;;5061967;28;20375;-89
2021/12/01 06:39:51;;;;;;;1.53;0.73;;;;;;;;;;5076456;28;20031;-89
2021/12/01 06:42:17;;;;;;;1.33;0.77;;;;;;;;;;5061645;28;20024;-88
2021/12/01 06:44:42;;;;;;;1.00;0.70;;;;;;;;;;5065293;28;20028;-89
2021/12/01 06:47:08;;;;;;;1.27;0.90;;;;;;;;;;5058584;28;20109;-89
2021/12/01 06:49:33;;;;;;;1.37;0.80;;;;;;;;;;5075198;28;20031;-89
2021/12/01 06:51:58;;;;;;;1.33;0.80;;;;;;;;;;5076121;28;20111;-89
2021/12/01 06:54:23;;;;;;;2.77;0.70;;;;;;;;;;5061566;28;20024;-89
2021/12/01 06:56:48;;;;;;;1.37;0.70;;;;;;;;;;5075982;28;20059;-89
2021/12/01 06:59:14;;;;;;;1.53;0.63;;;;;;;;;;5072848;28;20464;-89
2021/12/01 07:01:40;;;;;;;1.00;0.70;;;;;;;;;;5069324;28;20103;-89
2021/12/01 07:04:05;;;;;;;1.50;0.60;;;;;;;;;;5061885;28;20028;-90
2021/12/01 07:06:30;;;;;;;0.60;0.60;;;;;;;;;;5068668;28;20013;-89
2021/12/01 07:08:59;;;;;;;0.93;0.70;;;;;;;;;;5066377;28;20080;-90
2021/12/01 07:11:24;;;;;;;1.00;0.63;;;;;;;;;;5069558;28;20028;-89
2021/12/01 07:13:49;;;;;;;1.10;0.70;;;;;;;;;;5067287;28;20019;-90
2021/12/01 07:16:15;;;;;;;1.97;0.77;;;;;;;;;;5061275;28;20099;-90
2021/12/01 07:18:40;;;;;;;1.03;0.80;;;;;;;;;;5075312;28;20032;-90
2021/12/01 07:21:05;;;;;;;1.53;0.80;;;;;;;;;;5055999;28;20188;-90
2021/12/01 07:23:30;;;;;;;1.23;0.70;;;;;;;;;;5058023;28;20375;-90
2021/12/01 07:25:56;;;;;;;2.77;0.60;;;;;;;;;;5071042;28;20024;-90
2021/12/01 07:28:21;;;;;;;0.90;0.60;;;;;;;;;;5093464;28;20111;-90
2021/12/01 07:30:46;;;;;;;2.87;0.80;;;;;;;;;;5068373;28;20464;-90
2021/12/01 07:33:11;;;;;;;1.03;0.67;;;;;;;;;;5088793;28;20415;-89
2021/12/01 07:35:37;;;;;;;0.80;0.70;;;;;;;;;;5074422;28;20357;-89
2021/12/01 07:38:02;;;;;;;1.80;0.73;;;;;;;;;;5075508;28;20016;-89
2021/12/01 07:40:27;;;;;;;1.00;0.70;;;;;;;;;;5075331;28;20077;-89
2021/12/01 07:42:52;;;;;;;1.50;0.70;;;;;;;;;;5075662;28;20020;-90
2021/12/01 07:45:17;;;;;;;1.10;0.73;;;;;;;;;;5070903;28;20028;-90
2021/12/01 07:47:43;;;;;;;1.40;1.00;;;;;;;;;;5061883;28;20031;-90
2021/12/01 07:50:09;;;;;;;1.03;0.73;;;;;;;;;;5062949;28;20017;-89
2021/12/01 07:52:35;;;;;;;2.43;0.80;;;;;;;;;;5073946;28;20472;-90
2021/12/01 07:55:01;;;;;;;0.90;0.80;;;;;;;;;;5075586;28;20016;-90
2021/12/01 07:57:26;;;;;;;1.67;0.90;;;;;;;;;;5058889;28;20024;-90
2021/12/01 07:59:51;;;;;;;1.92;1.00;;;;;;;;;;5056158;28;20024;-90
2021/12/01 08:02:17;;;;;;;2.23;1.00;;;;;;;;;;5073170;28;20104;-90
2021/12/01 08:04:42;;;;;;;1.40;0.70;;;;;;;;;;5062078;28;20054;-90
2021/12/01 08:07:08;;;;;;;1.43;0.90;;;;;;;;;;5075092;28;20531;-90
2021/12/01 08:09:33;;;;;;;1.20;0.87;;;;;;;;;;5061266;28;20016;-90
2021/12/01 08:11:58;;;;;;;1.55;0.98;;;;;;;;;;5063238;28;20017;-90
2021/12/01 08:14:23;;;;;;;2.23;0.83;;;;;;;;;;5064197;28;20115;-90
2021/12/01 08:16:49;;;;;;;0.70;0.57;;;;;;;;;;5058900;28;20039;-89
2021/12/01 08:19:14;;;;;;;1.10;0.80;;;;;;;;;;5068505;28;20028;-92
2021/12/01 08:21:40;;;;;;;1.33;0.90;;;;;;;;;;5058002;28;20063;-90
2021/12/01 08:24:05;;;;;;;1.50;0.90;;;;;;;;;;5053695;28;20468;-89
2021/12/01 08:26:30;;;;;;;1.60;0.80;;;;;;;;;;5068243;28;20035;-90
2021/12/01 08:28:56;;;;;;;1.50;0.83;;;;;;;;;;5069333;28;20082;-90
2021/12/01 08:31:22;;;;;;;1.60;0.73;;;;;;;;;;5066360;28;20025;-90
2021/12/01 08:33:48;;;;;;;3.10;0.80;;;;;;;;;;5074732;28;20016;-90
2021/12/01 08:36:14;;;;;;;5.93;1.85;;;;;;;;;;5069784;28;20016;-90
2021/12/01 08:38:40;;;;;;;17.77;4.23;;;;;;;;;;5060351;28;20021;-90
2021/12/01 08:41:06;;;;;;;3.00;1.60;;;;;;;;;;5067651;28;20043;-90
2021/12/01 08:43:31;;;;;;;6.83;1.90;;;;;;;;;;5073960;28;20028;-90
2021/12/01 08:45:57;;;;;;;3.55;1.30;;;;;;;;;;5062295;28;20112;-88
2021/12/01 08:48:22;;;;;;;1.53;0.80;;;;;;;;;;5082102;28;20486;-90
2021/12/01 08:50:47;;;;;;;3.35;0.90;;;;;;;;;;5060723;28;20024;-90
2021/12/01 08:53:12;;;;;;;2.37;1.00;;;;;;;;;;5057950;28;20016;-89
2021/12/01 08:55:40;;;;;;;2.00;1.13;;;;;;;;;;5065592;28;20020;-88
2021/12/01 08:58:09;;;;;;;1.75;0.90;;;;;;;;;;5075662;28;20021;-89
2021/12/01 09:00:38;;;;;;;3.23;1.10;;;;;;;;;;5053953;28;20364;-87
2021/12/01 09:03:04;;;;;;;1.40;0.87;;;;;;;;;;5057835;28;20045;-88
2021/12/01 09:05:29;;;;;;;2.10;0.80;;;;;;;;;;5062170;28;20123;-88
2021/12/01 09:07:55;;;;;;;1.60;0.80;;;;;;;;;;5056852;28;20032;-89
2021/12/01 09:10:20;;;;;;;2.40;1.00;;;;;;;;;;5057182;28;20168;-88
2021/12/01 09:12:45;;;;;;;2.17;0.75;;;;;;;;;;5059034;28;20021;-88
2021/12/01 09:15:10;;;;;;;1.70;0.80;;;;;;;;;;5068571;28;20036;-89
2021/12/01 09:17:36;;;;;;;1.83;0.93;;;;;;;;;;5063573;28;20017;-88
2021/12/01 09:20:03;;;;;;;2.55;0.65;;;;;;;;;;5066985;28;20442;-89
2021/12/01 09:22:28;;;;;;;1.75;0.43;;;;;;;;;;5072266;28;20395;-88
2021/12/01 09:24:53;;;;;;;1.95;0.70;;;;;;;;;;5057226;28;20103;-88
2021/12/01 09:27:19;;;;;;;2.38;0.70;;;;;;;;;;5076144;28;20097;-89
2021/12/01 09:29:44;;;;;;;1.27;0.53;;;;;;;;;;5058339;28;20469;-88
2021/12/01 09:32:10;;;;;;;1.20;0.80;;;;;;;;;;5062429;28;20410;-88
2021/12/01 09:34:36;;;;;;;3.92;1.60;;;;;;;;;;5066773;28;20055;-88
2021/12/01 09:37:01;;;;;;;2.72;0.90;;;;;;;;;;5076722;28;20012;-89
2021/12/01 09:39:26;;;;;;;1.10;0.87;;;;;;;;;;5066818;28;20027;-87
2021/12/01 09:41:54;;;;;;;1.30;0.80;;;;;;;;;;5076239;28;20062;-87
2021/12/01 09:44:19;;;;;;;2.17;0.60;;;;;;;;;;5072489;28;20020;-89
2021/12/01 09:46:44;;;;;;;1.42;0.70;;;;;;;;;;5065769;28;20025;-89
2021/12/01 09:49:10;;;;;;;1.90;1.00;;;;;;;;;;5060715;28;20012;-88
2021/12/01 09:51:36;;;;;;;1.30;1.00;;;;;;;;;;5066151;28;20017;-88
2021/12/01 09:54:02;;;;;;;1.23;1.10;;;;;;;;;;5060090;28;20472;-89
2021/12/01 09:56:27;;;;;;;1.50;1.00;;;;;;;;;;5055686;28;20017;-88
2021/12/01 09:58:53;;;;;;;1.55;1.10;;;;;;;;;;5051444;28;20425;-88
2021/12/01 10:01:21;;;;;;;2.10;1.23;;;;;;;;;;5079369;28;20016;-88
2021/12/01 10:03:47;;;;;;;3.75;1.00;;;;;;;;;;5069032;28;20017;-88
2021/12/01 10:06:19;;;;;;;3.93;1.20;;;;;;;;;;5061135;28;20085;-89
2021/12/01 10:08:44;;;;;;;4.43;1.25;;;;;;;;;;5076579;28;20040;-89
2021/12/01 10:11:14;;;;;;;5.78;1.60;;;;;;;;;;5073588;28;20028;-89
2021/12/01 10:13:44;;;;;;;3.42;1.27;;;;;;;;;;5058795;28;20032;-89
2021/12/01 10:16:11;;;;;;;5.38;1.80;;;;;;;;;;5073034;28;20019;-88
2021/12/01 10:18:38;;;;;;;4.15;1.48;;;;;;;;;;5070465;28;20036;-89
2021/12/01 10:21:06;;;;;;;5.90;1.47;;;;;;;;;;5067463;28;20070;-89
2021/12/01 10:23:32;;;;;;;2.97;1.20;;;;;;;;;;5061349;28;20020;-88
2021/12/01 10:26:05;;;;;;;5.77;1.30;;;;;;;;;;5061157;28;20039;-89
2021/12/01 10:28:38;;;;;;;5.50;1.37;;;;;;;;;;5056289;28;20116;-89
2021/12/01 10:31:04;;;;;;;4.22;1.40;;;;;;;;;;5064846;28;20527;-89
2021/12/01 10:33:30;;;;;;;3.90;1.10;;;;;;;;;;5065555;28;20158;-88
2021/12/01 10:35:56;;;;;;;5.60;1.48;;;;;;;;;;5072574;28;20059;-89
2021/12/01 10:38:27;;;;;;;4.82;1.27;;;;;;;;;;5058150;28;20032;-88
2021/12/01 10:41:09;;;;;;;2.35;1.25;;;;;;;;;;5047659;28;20024;-86
2021/12/01 10:43:35;;;;;;;3.05;1.27;;;;;;;;;;5061589;28;20473;-88
2021/12/01 10:46:05;;;;;;;4.55;1.38;;;;;;;;;;5075381;28;20077;-88
2021/12/01 10:48:30;;;;;;;7.28;1.83;;;;;;;;;;5062556;28;20047;-88
2021/12/01 10:50:56;;;;;;;3.47;1.13;;;;;;;;;;5092635;28;20016;-89
2021/12/01 10:53:23;;;;;;;5.68;1.30;;;;;;;;;;5093635;28;20487;-88
2021/12/01 10:55:50;;;;;;;3.92;0.98;;;;;;;;;;5074561;28;20412;-88
2021/12/01 10:58:15;;;;;;;5.45;0.45;;;;;;;;;;5061392;28;20029;-88
2021/12/01 11:00:43;;;;;;;6.07;0.68;;;;;;;;;;5061516;28;20023;-88
2021/12/01 11:03:08;;;;;;;3.30;1.13;;;;;;;;;;5056181;28;20027;-89
2021/12/01 11:05:38;;;;;;;4.43;0.70;;;;;;;;;;5056206;28;20033;-88
2021/12/01 11:08:12;;;;;;;3.25;0.70;;;;;;;;;;5054147;28;20037;-88
2021/12/01 11:10:38;;;;;;;1.45;0.45;;;;;;;;;;5054553;28;20017;-89
2021/12/01 11:13:03;;;;;;;4.95;0.90;;;;;;;;;;5086556;28;20043;-89
2021/12/01 11:15:30;;;;;;;9.20;1.20;;;;;;;;;;5079543;28;20372;-88
2021/12/01 11:17:55;;;;;;;12.57;1.30;;;;;;;;;;5056104;28;20017;-88
2021/12/01 11:20:34;;;;;;;7.93;1.25;;;;;;;;;;5060023;28;20020;-88
2021/12/01 11:23:11;;;;;;;4.22;0.60;;;;;;;;;;5061943;28;20069;-88
2021/12/01 11:25:37;;;;;;;7.68;0.60;;;;;;;;;;5060253;28;20023;-88
2021/12/01 11:28:03;;;;;;;2.53;0.63;;;;;;;;;;5054307;28;20091;-88
2021/12/01 11:30:28;;;;;;;4.38;0.90;;;;;;;;;;5056917;28;20028;-88
2021/12/01 11:32:55;;;;;;;2.97;0.70;;;;;;;;;;5060365;28;20028;-88
2021/12/01 11:35:20;;;;;;;6.53;0.82;;;;;;;;;;5073906;28;20024;-88
2021/12/01 11:37:47;;;;;;;6.70;0.90;;;;;;;;;;5057395;28;20467;-88
2021/12/01 11:40:13;;;;;;;9.38;1.75;;;;;;;;;;5061350;28;20031;-89
2021/12/01 11:42:38;;;;;;;13.20;2.58;;;;;;;;;;5055119;28;20460;-89
2021/12/01 11:45:04;;;;;;;13.55;3.15;;;;;;;;;;5055674;28;20048;-89
2021/12/01 11:47:30;;;;;;;3.30;1.10;;;;;;;;;;5050903;28;20093;-89
2021/12/01 11:49:57;;;;;;;14.20;1.43;;;;;;;;;;5054614;28;20028;-89
2021/12/01 11:52:25;;;;;;;7.00;1.00;;;;;;;;;;5055513;28;20051;-88
2021/12/01 11:54:51;;;;;;;7.30;1.47;;;;;;;;;;5056030;28;20400;-88
2021/12/01 11:57:17;;;;;;;6.55;0.88;;;;;;;;;;5048397;28;20020;-88
2021/12/01 11:59:47;;;;;;;7.57;1.30;;;;;;;;;;5088220;28;20029;-88
2021/12/01 12:02:15;;;;;;;3.23;0.70;;;;;;;;;;5055808;28;20020;-88
2021/12/01 12:04:43;;;;;;;1.83;0.60;;;;;;;;;;5053550;28;20024;-88
2021/12/01 12:07:10;;;;;;;4.68;0.80;;;;;;;;;;5054697;28;20042;-88
2021/12/01 12:09:37;;;;;;;2.90;0.63;;;;;;;;;;5056263;28;20016;-89
2021/12/01 12:12:09;;;;;;;6.90;0.77;;;;;;;;;;5055179;28;20028;-88
2021/12/01 12:14:36;;;;;;;2.97;0.68;;;;;;;;;;5054522;28;20024;-88
2021/12/01 12:17:01;;;;;;;5.63;0.83;;;;;;;;;;5054154;28;20083;-88
2021/12/01 12:19:49;;;;;;;2.67;0.40;;;;;;;;;;5055242;28;20017;-88
2021/12/01 12:22:37;;;;;;;2.77;0.90;;;;;;;;;;5084583;28;20035;-87
2021/12/01 12:25:05;;;;;;;2.93;0.70;;;;;;;;;;5059003;28;20051;-87
2021/12/01 12:27:35;;;;;;;4.43;0.53;;;;;;;;;;5075086;28;20058;-88
2021/12/01 12:30:03;;;;;;;3.37;0.70;;;;;;;;;;5072150;28;20063;-88
2021/12/01 12:32:33;;;;;;;9.03;0.90;;;;;;;;;;5064767;28;20104;-88
2021/12/01 12:35:01;;;;;;;2.47;0.50;;;;;;;;;;5096089;28;20031;-87
2021/12/01 12:37:27;;;;;;;4.67;0.50;;;;;;;;;;5069838;28;20513;-88
2021/12/01 12:39:53;;;;;;;2.67;0.70;;;;;;;;;;5069470;28;20442;-88
2021/12/01 12:42:18;;;;;;;4.93;0.83;;;;;;;;;;5056463;28;20116;-88
2021/12/01 12:44:44;;;;;;;7.70;0.70;;;;;;;;;;5065209;28;20027;-88
2021/12/01 12:47:10;;;;;;;5.43;0.90;;;;;;;;;;5057044;28;20017;-88
2021/12/01 12:49:39;;;;;;;6.53;1.40;;;;;;;;;;5057822;28;20023;-88
2021/12/01 12:52:23;;;;;;;6.60;0.90;;;;;;;;;;5088965;28;20056;-87
2021/12/01 12:54:49;;;;;;;6.63;1.33;;;;;;;;;;5092094;28;20019;-87
2021/12/01 12:57:16;;;;;;;6.03;1.50;;;;;;;;;;5058248;28;20112;-87
2021/12/01 12:59:41;;;;;;;9.77;1.60;;;;;;;;;;5071568;28;20077;-87
2021/12/01 13:02:09;;;;;;;7.50;1.33;;;;;;;;;;5062400;28;20025;-87
2021/12/01 13:05:02;;;;;;;8.30;1.77;;;;;;;;;;5060266;28;20095;-88
2021/12/01 13:07:42;;;;;;;4.13;1.63;;;;;;;;;;5089840;28;20054;-88
2021/12/01 13:10:22;;;;;;;6.97;1.50;;;;;;;;;;5066079;28;20081;-88
2021/12/01 13:12:47;;;;;;;6.77;1.20;;;;;;;;;;5092290;28;20028;-88
2021/12/01 13:15:19;;;;;;;6.67;1.03;;;;;;;;;;5060974;28;20114;-88
2021/12/01 13:17:55;;;;;;;6.20;1.20;;;;;;;;;;5061126;28;20017;-88
2021/12/01 13:20:23;;;;;;;9.23;1.63;;;;;;;;;;5098096;28;20347;-88
2021/12/01 13:23:07;;;;;;;4.40;0.80;;;;;;;;;;5072548;28;20593;-88
2021/12/01 13:25:33;;;;;;;7.47;1.80;;;;;;;;;;5077128;28;20373;-87
2021/12/01 13:28:03;;;;;;;5.83;1.43;;;;;;;;;;5066014;28;20020;-88
2021/12/01 13:30:29;;;;;;;5.47;0.63;;;;;;;;;;5066475;28;20025;-88
2021/12/01 13:33:13;;;;;;;6.53;1.13;;;;;;;;;;5056126;28;20029;-89
2021/12/01 13:35:39;;;;;;;3.90;0.90;;;;;;;;;;5075224;28;20020;-89
2021/12/01 13:38:05;;;;;;;5.23;1.10;;;;;;;;;;5066070;28;20034;-89
2021/12/01 13:40:30;;;;;;;8.03;1.00;;;;;;;;;;5068066;28;20433;-88
2021/12/01 13:42:56;;;;;;;5.90;1.27;;;;;;;;;;5055387;28;20028;-89
2021/12/01 13:45:26;;;;;;;6.93;1.13;;;;;;;;;;5059325;28;20059;-89
2021/12/01 13:47:51;;;;;;;7.07;0.90;;;;;;;;;;5064807;28;20088;-88
2021/12/01 13:50:17;;;;;;;7.70;1.00;;;;;;;;;;5085491;28;20393;-88
2021/12/01 13:52:44;;;;;;;5.57;0.90;;;;;;;;;;5073377;28;20033;-88
2021/12/01 13:55:18;;;;;;;4.70;0.97;;;;;;;;;;5074182;28;20474;-89
2021/12/01 13:57:44;;;;;;;6.90;1.77;;;;;;;;;;5057647;28;20047;-88
2021/12/01 14:00:10;;;;;;;8.37;1.30;;;;;;;;;;5058598;28;20032;-89
2021/12/01 14:02:35;;;;;;;7.83;1.20;;;;;;;;;;5086332;28;20361;-89
2021/12/01 14:05:02;;;;;;;6.50;1.00;;;;;;;;;;5067605;28;20029;-89
2021/12/01 14:07:47;;;;;;;2.80;0.80;;;;;;;;;;5077877;28;20046;-88
2021/12/01 14:10:18;;;;;;;4.60;1.40;;;;;;;;;;5052818;28;20041;-88
2021/12/01 14:13:03;;;;;;;4.80;1.03;;;;;;;;;;5058936;28;20100;-88
2021/12/01 14:15:29;;;;;;;7.00;1.10;;;;;;;;;;5072834;28;20151;-88
2021/12/01 14:17:54;;;;;;;7.77;1.33;;;;;;;;;;5059380;28;20025;-88
2021/12/01 14:20:22;;;;;;;8.00;1.33;;;;;;;;;;5075253;28;20529;-89
2021/12/01 14:22:48;;;;;;;6.73;1.23;;;;;;;;;;5076499;28;20063;-88
2021/12/01 14:25:14;;;;;;;9.73;1.50;;;;;;;;;;5063529;28;20040;-90
2021/12/01 14:27:41;;;;;;;9.37;2.07;;;;;;;;;;5060101;28;20060;-89
2021/12/01 14:30:11;;;;;;;9.67;2.13;;;;;;;;;;5046503;28;20037;-89
2021/12/01 14:32:37;;;;;;;6.53;1.60;;;;;;;;;;5069043;28;20036;-88
2021/12/01 14:35:04;;;;;;;15.70;3.00;;;;;;;;;;5061729;28;20524;-89
2021/12/01 14:37:30;;;;;;;13.30;2.50;;;;;;;;;;5063656;28;20057;-89
2021/12/01 14:40:08;;;;;;;13.10;2.63;;;;;;;;;;5055757;28;20013;-89
2021/12/01 14:42:33;;;;;;;14.63;2.60;;;;;;;;;;5079129;28;20025;-89
2021/12/01 14:45:05;;;;;;;17.83;2.17;;;;;;;;;;5067611;28;20028;-89